sensor_id;sensor_type;location;lat;lon;timestamp;P1;durP1;ratioP1;P2;durP2;ratioP2
5967;SDS011;3010;51.028;4.170;2022-10-16T00:01:33;3.33;;;1.83;;
5967;SDS011;3010;51.028;4.170;2022-10-16T00:03:59;2.20;;;2.00;;
5967;SDS011;3010;51.028;4.170;2022-10-16T00:06:27;2.67;;;1.90;;
5967;SDS011;3010;51.028;4.170;2022-10-16T00:08:54;1.77;;;1.77;;
5967;SDS011;3010;51.028;4.170;2022-10-16T00:11:22;1.80;;;1.67;;
5967;SDS011;3010;51.028;4.170;2022-10-16T00:13:48;1.97;;;1.80;;
5967;SDS011;3010;51.028;4.170;2022-10-16T00:16:14;1.90;;;1.80;;
5967;SDS011;3010;51.028;4.170;2022-10-16T00:18:40;1.87;;;1.77;;
5967;SDS011;3010;51.028;4.170;2022-10-16T00:21:08;1.83;;;1.83;;
5967;SDS011;3010;51.028;4.170;2022-10-16T00:23:33;2.50;;;1.80;;
5967;SDS011;3010;51.028;4.170;2022-10-16T00:26:02;2.10;;;1.97;;
5967;SDS011;3010;51.028;4.170;2022-10-16T00:28:26;3.83;;;1.70;;
5967;SDS011;3010;51.028;4.170;2022-10-16T00:30:53;1.83;;;1.73;;
5967;SDS011;3010;51.028;4.170;2022-10-16T00:33:20;2.47;;;1.60;;
5967;SDS011;3010;51.028;4.170;2022-10-16T00:35:46;2.07;;;1.73;;
5967;SDS011;3010;51.028;4.170;2022-10-16T00:38:13;1.90;;;1.90;;
5967;SDS011;3010;51.028;4.170;2022-10-16T00:40:40;2.47;;;2.10;;
5967;SDS011;3010;51.028;4.170;2022-10-16T00:43:13;1.80;;;1.80;;
5967;SDS011;3010;51.028;4.170;2022-10-16T00:45:39;1.93;;;1.80;;
5967;SDS011;3010;51.028;4.170;2022-10-16T00:48:06;1.80;;;1.63;;
5967;SDS011;3010;51.028;4.170;2022-10-16T00:50:32;3.30;;;2.00;;
5967;SDS011;3010;51.028;4.170;2022-10-16T00:52:58;1.90;;;1.80;;
5967;SDS011;3010;51.028;4.170;2022-10-16T00:55:25;3.97;;;1.70;;
5967;SDS011;3010;51.028;4.170;2022-10-16T00:57:51;4.23;;;1.87;;
5967;SDS011;3010;51.028;4.170;2022-10-16T01:00:19;2.10;;;1.77;;
5967;SDS011;3010;51.028;4.170;2022-10-16T01:02:51;1.70;;;1.70;;
5967;SDS011;3010;51.028;4.170;2022-10-16T01:05:11;2.07;;;1.87;;
5967;SDS011;3010;51.028;4.170;2022-10-16T01:10:19;2.07;;;1.70;;
5967;SDS011;3010;51.028;4.170;2022-10-16T01:15:25;1.77;;;1.50;;
5967;SDS011;3010;51.028;4.170;2022-10-16T01:17:57;2.23;;;1.47;;
5967;SDS011;3010;51.028;4.170;2022-10-16T01:20:35;1.60;;;1.60;;
5967;SDS011;3010;51.028;4.170;2022-10-16T01:25:59;2.30;;;1.40;;
5967;SDS011;3010;51.028;4.170;2022-10-16T01:31:24;2.10;;;1.70;;
5967;SDS011;3010;51.028;4.170;2022-10-16T01:33:51;1.67;;;1.50;;
5967;SDS011;3010;51.028;4.170;2022-10-16T01:36:21;2.80;;;1.80;;
5967;SDS011;3010;51.028;4.170;2022-10-16T01:38:48;1.83;;;1.73;;
5967;SDS011;3010;51.028;4.170;2022-10-16T01:41:18;1.83;;;1.73;;
5967;SDS011;3010;51.028;4.170;2022-10-16T01:43:45;2.23;;;1.97;;
5967;SDS011;3010;51.028;4.170;2022-10-16T01:46:13;2.03;;;1.73;;
5967;SDS011;3010;51.028;4.170;2022-10-16T01:48:39;2.20;;;1.83;;
5967;SDS011;3010;51.028;4.170;2022-10-16T01:51:06;1.87;;;1.87;;
5967;SDS011;3010;51.028;4.170;2022-10-16T01:53:32;3.60;;;2.17;;
5967;SDS011;3010;51.028;4.170;2022-10-16T01:55:59;3.90;;;2.10;;
5967;SDS011;3010;51.028;4.170;2022-10-16T01:58:26;2.83;;;2.20;;
5967;SDS011;3010;51.028;4.170;2022-10-16T02:00:52;2.20;;;2.20;;
5967;SDS011;3010;51.028;4.170;2022-10-16T02:03:19;2.00;;;2.00;;
5967;SDS011;3010;51.028;4.170;2022-10-16T02:08:12;2.40;;;2.30;;
5967;SDS011;3010;51.028;4.170;2022-10-16T02:10:39;2.70;;;2.17;;
5967;SDS011;3010;51.028;4.170;2022-10-16T02:13:10;2.23;;;2.13;;
5967;SDS011;3010;51.028;4.170;2022-10-16T02:15:43;4.05;;;2.53;;
5967;SDS011;3010;51.028;4.170;2022-10-16T02:18:07;2.60;;;2.50;;
5967;SDS011;3010;51.028;4.170;2022-10-16T02:20:40;4.70;;;2.47;;
5967;SDS011;3010;51.028;4.170;2022-10-16T02:23:00;2.40;;;2.30;;
5967;SDS011;3010;51.028;4.170;2022-10-16T02:25:29;2.47;;;2.37;;
5967;SDS011;3010;51.028;4.170;2022-10-16T02:30:32;2.30;;;2.20;;
5967;SDS011;3010;51.028;4.170;2022-10-16T02:33:03;2.43;;;2.23;;
5967;SDS011;3010;51.028;4.170;2022-10-16T02:35:30;3.33;;;2.40;;
5967;SDS011;3010;51.028;4.170;2022-10-16T02:37:56;2.67;;;2.33;;
5967;SDS011;3010;51.028;4.170;2022-10-16T02:40:23;2.87;;;2.47;;
5967;SDS011;3010;51.028;4.170;2022-10-16T02:42:50;3.07;;;2.80;;
5967;SDS011;3010;51.028;4.170;2022-10-16T02:45:16;2.83;;;2.73;;
5967;SDS011;3010;51.028;4.170;2022-10-16T02:47:43;3.63;;;2.27;;
5967;SDS011;3010;51.028;4.170;2022-10-16T02:50:09;2.80;;;2.60;;
5967;SDS011;3010;51.028;4.170;2022-10-16T02:52:36;2.70;;;2.60;;
5967;SDS011;3010;51.028;4.170;2022-10-16T02:55:02;3.70;;;2.57;;
5967;SDS011;3010;51.028;4.170;2022-10-16T02:57:29;3.83;;;2.67;;
5967;SDS011;3010;51.028;4.170;2022-10-16T02:59:55;2.77;;;2.57;;
5967;SDS011;3010;51.028;4.170;2022-10-16T03:02:22;2.63;;;2.43;;
5967;SDS011;3010;51.028;4.170;2022-10-16T03:04:49;2.60;;;2.50;;
5967;SDS011;3010;51.028;4.170;2022-10-16T03:07:15;3.30;;;3.10;;
5967;SDS011;3010;51.028;4.170;2022-10-16T03:09:42;3.90;;;2.77;;
5967;SDS011;3010;51.028;4.170;2022-10-16T03:12:08;2.73;;;2.63;;
5967;SDS011;3010;51.028;4.170;2022-10-16T03:14:35;3.10;;;2.60;;
5967;SDS011;3010;51.028;4.170;2022-10-16T03:17:02;2.90;;;2.77;;
5967;SDS011;3010;51.028;4.170;2022-10-16T03:19:28;5.23;;;3.13;;
5967;SDS011;3010;51.028;4.170;2022-10-16T03:21:55;2.93;;;2.73;;
5967;SDS011;3010;51.028;4.170;2022-10-16T03:24:21;4.13;;;3.33;;
5967;SDS011;3010;51.028;4.170;2022-10-16T03:26:48;2.80;;;2.60;;
5967;SDS011;3010;51.028;4.170;2022-10-16T03:29:15;3.10;;;2.90;;
5967;SDS011;3010;51.028;4.170;2022-10-16T03:31:41;3.07;;;2.97;;
5967;SDS011;3010;51.028;4.170;2022-10-16T03:34:08;3.10;;;2.90;;
5967;SDS011;3010;51.028;4.170;2022-10-16T03:36:34;3.23;;;2.93;;
5967;SDS011;3010;51.028;4.170;2022-10-16T03:39:01;3.50;;;3.30;;
5967;SDS011;3010;51.028;4.170;2022-10-16T03:41:27;2.83;;;2.63;;
5967;SDS011;3010;51.028;4.170;2022-10-16T03:43:54;3.00;;;2.80;;
5967;SDS011;3010;51.028;4.170;2022-10-16T03:46:21;2.90;;;2.77;;
5967;SDS011;3010;51.028;4.170;2022-10-16T03:48:47;2.60;;;2.50;;
5967;SDS011;3010;51.028;4.170;2022-10-16T03:51:14;3.20;;;3.00;;
5967;SDS011;3010;51.028;4.170;2022-10-16T03:53:40;3.23;;;2.67;;
5967;SDS011;3010;51.028;4.170;2022-10-16T03:56:07;3.37;;;3.17;;
5967;SDS011;3010;51.028;4.170;2022-10-16T03:58:34;2.73;;;2.63;;
5967;SDS011;3010;51.028;4.170;2022-10-16T04:01:00;3.77;;;3.47;;
5967;SDS011;3010;51.028;4.170;2022-10-16T04:03:27;3.57;;;3.23;;
5967;SDS011;3010;51.028;4.170;2022-10-16T04:05:53;3.40;;;3.10;;
5967;SDS011;3010;51.028;4.170;2022-10-16T04:08:20;5.20;;;2.80;;
5967;SDS011;3010;51.028;4.170;2022-10-16T04:10:47;2.80;;;2.60;;
5967;SDS011;3010;51.028;4.170;2022-10-16T04:13:14;6.07;;;2.80;;
5967;SDS011;3010;51.028;4.170;2022-10-16T04:15:40;2.93;;;2.80;;
5967;SDS011;3010;51.028;4.170;2022-10-16T04:18:06;3.13;;;2.93;;
5967;SDS011;3010;51.028;4.170;2022-10-16T04:20:33;3.27;;;2.70;;
5967;SDS011;3010;51.028;4.170;2022-10-16T04:22:59;4.60;;;3.27;;
5967;SDS011;3010;51.028;4.170;2022-10-16T04:25:26;3.50;;;3.23;;
5967;SDS011;3010;51.028;4.170;2022-10-16T04:27:53;3.40;;;3.07;;
5967;SDS011;3010;51.028;4.170;2022-10-16T04:30:19;3.47;;;3.10;;
5967;SDS011;3010;51.028;4.170;2022-10-16T04:32:49;4.30;;;3.33;;
5967;SDS011;3010;51.028;4.170;2022-10-16T04:35:16;3.27;;;3.07;;
5967;SDS011;3010;51.028;4.170;2022-10-16T04:37:42;3.40;;;3.20;;
5967;SDS011;3010;51.028;4.170;2022-10-16T04:40:08;3.60;;;3.30;;
5967;SDS011;3010;51.028;4.170;2022-10-16T04:42:35;5.60;;;3.97;;
5967;SDS011;3010;51.028;4.170;2022-10-16T04:45:02;3.87;;;3.47;;
5967;SDS011;3010;51.028;4.170;2022-10-16T04:47:28;4.17;;;3.23;;
5967;SDS011;3010;51.028;4.170;2022-10-16T04:49:55;4.90;;;3.20;;
5967;SDS011;3010;51.028;4.170;2022-10-16T04:52:21;3.90;;;3.60;;
5967;SDS011;3010;51.028;4.170;2022-10-16T04:54:48;3.90;;;3.60;;
5967;SDS011;3010;51.028;4.170;2022-10-16T04:57:15;3.33;;;3.13;;
5967;SDS011;3010;51.028;4.170;2022-10-16T04:59:41;3.73;;;3.17;;
5967;SDS011;3010;51.028;4.170;2022-10-16T05:02:08;3.67;;;3.47;;
5967;SDS011;3010;51.028;4.170;2022-10-16T05:04:34;3.87;;;3.60;;
5967;SDS011;3010;51.028;4.170;2022-10-16T05:07:01;3.93;;;3.43;;
5967;SDS011;3010;51.028;4.170;2022-10-16T05:09:27;4.70;;;3.70;;
5967;SDS011;3010;51.028;4.170;2022-10-16T05:11:54;4.77;;;3.60;;
5967;SDS011;3010;51.028;4.170;2022-10-16T05:14:21;3.77;;;3.57;;
5967;SDS011;3010;51.028;4.170;2022-10-16T05:16:47;4.37;;;3.97;;
5967;SDS011;3010;51.028;4.170;2022-10-16T05:19:14;5.90;;;4.03;;
5967;SDS011;3010;51.028;4.170;2022-10-16T05:21:40;5.07;;;3.93;;
5967;SDS011;3010;51.028;4.170;2022-10-16T05:24:07;4.43;;;3.20;;
5967;SDS011;3010;51.028;4.170;2022-10-16T05:26:34;4.17;;;3.37;;
5967;SDS011;3010;51.028;4.170;2022-10-16T05:29:00;5.43;;;4.00;;
5967;SDS011;3010;51.028;4.170;2022-10-16T05:31:27;5.72;;;3.58;;
5967;SDS011;3010;51.028;4.170;2022-10-16T05:33:57;3.80;;;3.37;;
5967;SDS011;3010;51.028;4.170;2022-10-16T05:36:20;4.33;;;3.20;;
5967;SDS011;3010;51.028;4.170;2022-10-16T05:38:50;6.87;;;3.13;;
5967;SDS011;3010;51.028;4.170;2022-10-16T05:41:13;3.87;;;2.83;;
5967;SDS011;3010;51.028;4.170;2022-10-16T05:43:40;5.53;;;3.30;;
5967;SDS011;3010;51.028;4.170;2022-10-16T05:46:06;5.77;;;3.13;;
5967;SDS011;3010;51.028;4.170;2022-10-16T05:48:33;4.83;;;3.10;;
5967;SDS011;3010;51.028;4.170;2022-10-16T05:51:00;5.70;;;3.00;;
5967;SDS011;3010;51.028;4.170;2022-10-16T05:53:26;4.63;;;3.43;;
5967;SDS011;3010;51.028;4.170;2022-10-16T05:55:53;5.03;;;3.17;;
5967;SDS011;3010;51.028;4.170;2022-10-16T05:58:19;4.37;;;3.63;;
5967;SDS011;3010;51.028;4.170;2022-10-16T06:00:55;3.33;;;3.10;;
5967;SDS011;3010;51.028;4.170;2022-10-16T06:03:21;3.87;;;3.57;;
5967;SDS011;3010;51.028;4.170;2022-10-16T06:05:48;3.90;;;3.60;;
5967;SDS011;3010;51.028;4.170;2022-10-16T06:08:14;6.43;;;3.70;;
5967;SDS011;3010;51.028;4.170;2022-10-16T06:10:41;4.17;;;3.80;;
5967;SDS011;3010;51.028;4.170;2022-10-16T06:13:08;4.50;;;3.93;;
5967;SDS011;3010;51.028;4.170;2022-10-16T06:15:34;5.10;;;3.70;;
5967;SDS011;3010;51.028;4.170;2022-10-16T06:18:01;4.47;;;3.95;;
5967;SDS011;3010;51.028;4.170;2022-10-16T06:20:27;3.67;;;3.37;;
5967;SDS011;3010;51.028;4.170;2022-10-16T06:22:54;4.03;;;3.73;;
5967;SDS011;3010;51.028;4.170;2022-10-16T06:25:21;3.67;;;3.37;;
5967;SDS011;3010;51.028;4.170;2022-10-16T06:27:47;3.53;;;3.33;;
5967;SDS011;3010;51.028;4.170;2022-10-16T06:30:14;5.32;;;3.40;;
5967;SDS011;3010;51.028;4.170;2022-10-16T06:32:40;6.20;;;3.37;;
5967;SDS011;3010;51.028;4.170;2022-10-16T06:35:07;4.00;;;3.33;;
5967;SDS011;3010;51.028;4.170;2022-10-16T06:37:33;3.93;;;3.63;;
5967;SDS011;3010;51.028;4.170;2022-10-16T06:40:00;4.40;;;3.63;;
5967;SDS011;3010;51.028;4.170;2022-10-16T06:42:27;4.12;;;3.67;;
5967;SDS011;3010;51.028;4.170;2022-10-16T06:44:53;4.00;;;3.60;;
5967;SDS011;3010;51.028;4.170;2022-10-16T06:47:20;3.80;;;3.43;;
5967;SDS011;3010;51.028;4.170;2022-10-16T06:49:46;3.33;;;3.23;;
5967;SDS011;3010;51.028;4.170;2022-10-16T06:52:13;3.80;;;3.50;;
5967;SDS011;3010;51.028;4.170;2022-10-16T06:54:40;4.17;;;3.80;;
5967;SDS011;3010;51.028;4.170;2022-10-16T06:57:06;3.50;;;3.30;;
5967;SDS011;3010;51.028;4.170;2022-10-16T06:59:33;4.80;;;3.60;;
5967;SDS011;3010;51.028;4.170;2022-10-16T07:01:59;3.63;;;3.40;;
5967;SDS011;3010;51.028;4.170;2022-10-16T07:04:26;3.87;;;3.57;;
5967;SDS011;3010;51.028;4.170;2022-10-16T07:06:53;4.20;;;3.80;;
5967;SDS011;3010;51.028;4.170;2022-10-16T07:09:19;4.50;;;4.10;;
5967;SDS011;3010;51.028;4.170;2022-10-16T07:11:46;4.90;;;3.70;;
5967;SDS011;3010;51.028;4.170;2022-10-16T07:14:14;5.03;;;4.53;;
5967;SDS011;3010;51.028;4.170;2022-10-16T07:16:42;4.97;;;3.67;;
5967;SDS011;3010;51.028;4.170;2022-10-16T07:19:08;4.50;;;3.75;;
5967;SDS011;3010;51.028;4.170;2022-10-16T07:21:39;4.13;;;3.80;;
5967;SDS011;3010;51.028;4.170;2022-10-16T07:24:06;4.57;;;3.27;;
5967;SDS011;3010;51.028;4.170;2022-10-16T07:26:33;3.93;;;3.60;;
5967;SDS011;3010;51.028;4.170;2022-10-16T07:28:59;4.43;;;3.57;;
5967;SDS011;3010;51.028;4.170;2022-10-16T07:31:26;4.30;;;3.40;;
5967;SDS011;3010;51.028;4.170;2022-10-16T07:33:52;5.77;;;3.83;;
5967;SDS011;3010;51.028;4.170;2022-10-16T07:36:19;3.97;;;3.43;;
5967;SDS011;3010;51.028;4.170;2022-10-16T07:38:45;3.80;;;3.20;;
5967;SDS011;3010;51.028;4.170;2022-10-16T07:41:13;4.10;;;3.67;;
5967;SDS011;3010;51.028;4.170;2022-10-16T07:43:38;4.20;;;3.80;;
5967;SDS011;3010;51.028;4.170;2022-10-16T07:46:05;3.60;;;3.30;;
5967;SDS011;3010;51.028;4.170;2022-10-16T07:48:32;3.30;;;3.13;;
5967;SDS011;3010;51.028;4.170;2022-10-16T07:50:58;3.47;;;3.17;;
5967;SDS011;3010;51.028;4.170;2022-10-16T07:53:25;3.60;;;3.30;;
5967;SDS011;3010;51.028;4.170;2022-10-16T07:55:51;3.50;;;3.20;;
5967;SDS011;3010;51.028;4.170;2022-10-16T07:58:18;3.93;;;3.40;;
5967;SDS011;3010;51.028;4.170;2022-10-16T08:00:44;5.30;;;3.10;;
5967;SDS011;3010;51.028;4.170;2022-10-16T08:03:12;6.23;;;3.10;;
5967;SDS011;3010;51.028;4.170;2022-10-16T08:05:39;5.30;;;3.20;;
5967;SDS011;3010;51.028;4.170;2022-10-16T08:08:05;4.50;;;2.97;;
5967;SDS011;3010;51.028;4.170;2022-10-16T08:10:32;6.30;;;3.03;;
5967;SDS011;3010;51.028;4.170;2022-10-16T08:12:58;2.80;;;2.60;;
5967;SDS011;3010;51.028;4.170;2022-10-16T08:15:25;2.67;;;2.47;;
5967;SDS011;3010;51.028;4.170;2022-10-16T08:17:55;3.57;;;2.73;;
5967;SDS011;3010;51.028;4.170;2022-10-16T08:20:21;3.50;;;2.50;;
5967;SDS011;3010;51.028;4.170;2022-10-16T08:22:47;5.27;;;2.70;;
5967;SDS011;3010;51.028;4.170;2022-10-16T08:25:14;5.43;;;2.70;;
5967;SDS011;3010;51.028;4.170;2022-10-16T08:27:41;3.20;;;2.80;;
5967;SDS011;3010;51.028;4.170;2022-10-16T08:30:07;3.77;;;2.60;;
5967;SDS011;3010;51.028;4.170;2022-10-16T08:32:34;3.00;;;2.37;;
5967;SDS011;3010;51.028;4.170;2022-10-16T08:35:01;3.43;;;2.70;;
5967;SDS011;3010;51.028;4.170;2022-10-16T08:37:30;5.00;;;2.57;;
5967;SDS011;3010;51.028;4.170;2022-10-16T08:39:57;3.65;;;2.65;;
5967;SDS011;3010;51.028;4.170;2022-10-16T08:42:39;5.47;;;2.50;;
5967;SDS011;3010;51.028;4.170;2022-10-16T08:45:17;2.40;;;2.27;;
5967;SDS011;3010;51.028;4.170;2022-10-16T08:47:35;3.37;;;2.50;;
5967;SDS011;3010;51.028;4.170;2022-10-16T08:50:02;4.53;;;2.40;;
5967;SDS011;3010;51.028;4.170;2022-10-16T08:52:31;2.90;;;2.63;;
5967;SDS011;3010;51.028;4.170;2022-10-16T08:54:57;3.70;;;2.70;;
5967;SDS011;3010;51.028;4.170;2022-10-16T08:57:24;3.17;;;2.30;;
5967;SDS011;3010;51.028;4.170;2022-10-16T08:59:51;4.07;;;2.30;;
5967;SDS011;3010;51.028;4.170;2022-10-16T09:02:24;5.27;;;2.73;;
5967;SDS011;3010;51.028;4.170;2022-10-16T09:05:26;3.13;;;2.70;;
5967;SDS011;3010;51.028;4.170;2022-10-16T09:07:56;3.13;;;2.43;;
5967;SDS011;3010;51.028;4.170;2022-10-16T09:13:17;4.07;;;2.28;;
5967;SDS011;3010;51.028;4.170;2022-10-16T09:21:19;3.80;;;2.77;;
5967;SDS011;3010;51.028;4.170;2022-10-16T09:23:41;3.90;;;2.20;;
5967;SDS011;3010;51.028;4.170;2022-10-16T09:26:11;3.87;;;2.13;;
5967;SDS011;3010;51.028;4.170;2022-10-16T09:28:37;6.10;;;2.37;;
5967;SDS011;3010;51.028;4.170;2022-10-16T09:31:03;3.83;;;2.10;;
5967;SDS011;3010;51.028;4.170;2022-10-16T09:33:32;4.83;;;2.43;;
5967;SDS011;3010;51.028;4.170;2022-10-16T09:35:56;2.87;;;2.20;;
5967;SDS011;3010;51.028;4.170;2022-10-16T09:38:28;4.63;;;2.13;;
5967;SDS011;3010;51.028;4.170;2022-10-16T09:40:50;4.20;;;2.40;;
5967;SDS011;3010;51.028;4.170;2022-10-16T09:43:21;4.87;;;2.40;;
5967;SDS011;3010;51.028;4.170;2022-10-16T09:45:58;5.43;;;2.33;;
5967;SDS011;3010;51.028;4.170;2022-10-16T09:48:25;4.30;;;2.47;;
5967;SDS011;3010;51.028;4.170;2022-10-16T09:50:58;6.13;;;2.43;;
5967;SDS011;3010;51.028;4.170;2022-10-16T09:53:23;5.20;;;2.50;;
5967;SDS011;3010;51.028;4.170;2022-10-16T09:55:50;3.87;;;2.27;;
5967;SDS011;3010;51.028;4.170;2022-10-16T09:58:16;4.50;;;2.30;;
5967;SDS011;3010;51.028;4.170;2022-10-16T10:00:48;5.93;;;2.23;;
5967;SDS011;3010;51.028;4.170;2022-10-16T10:03:33;6.37;;;1.93;;
5967;SDS011;3010;51.028;4.170;2022-10-16T10:06:22;3.87;;;2.10;;
5967;SDS011;3010;51.028;4.170;2022-10-16T10:08:32;4.80;;;1.90;;
5967;SDS011;3010;51.028;4.170;2022-10-16T10:10:59;6.17;;;2.57;;
5967;SDS011;3010;51.028;4.170;2022-10-16T10:13:25;3.77;;;2.10;;
5967;SDS011;3010;51.028;4.170;2022-10-16T10:15:52;4.47;;;2.43;;
5967;SDS011;3010;51.028;4.170;2022-10-16T10:18:19;3.03;;;2.13;;
5967;SDS011;3010;51.028;4.170;2022-10-16T10:20:45;5.40;;;2.53;;
5967;SDS011;3010;51.028;4.170;2022-10-16T10:23:22;4.73;;;2.00;;
5967;SDS011;3010;51.028;4.170;2022-10-16T10:31:20;5.63;;;2.20;;
5967;SDS011;3010;51.028;4.170;2022-10-16T10:33:51;3.35;;;1.87;;
5967;SDS011;3010;51.028;4.170;2022-10-16T10:36:23;5.53;;;2.20;;
5967;SDS011;3010;51.028;4.170;2022-10-16T10:38:52;6.10;;;1.97;;
5967;SDS011;3010;51.028;4.170;2022-10-16T10:52:11;6.23;;;2.13;;
5967;SDS011;3010;51.028;4.170;2022-10-16T10:55:17;3.27;;;1.70;;
5967;SDS011;3010;51.028;4.170;2022-10-16T10:57:16;5.50;;;2.13;;
5967;SDS011;3010;51.028;4.170;2022-10-16T11:05:12;5.80;;;2.30;;
5967;SDS011;3010;51.028;4.170;2022-10-16T11:07:40;3.10;;;1.90;;
5967;SDS011;3010;51.028;4.170;2022-10-16T11:10:12;3.67;;;2.33;;
5967;SDS011;3010;51.028;4.170;2022-10-16T11:12:38;3.83;;;2.13;;
5967;SDS011;3010;51.028;4.170;2022-10-16T11:15:14;6.53;;;2.25;;
5967;SDS011;3010;51.028;4.170;2022-10-16T11:17:51;2.73;;;1.90;;
5967;SDS011;3010;51.028;4.170;2022-10-16T11:20:25;4.47;;;1.57;;
5967;SDS011;3010;51.028;4.170;2022-10-16T11:22:54;6.73;;;2.10;;
5967;SDS011;3010;51.028;4.170;2022-10-16T11:25:21;2.30;;;2.10;;
5967;SDS011;3010;51.028;4.170;2022-10-16T11:27:48;4.63;;;2.00;;
5967;SDS011;3010;51.028;4.170;2022-10-16T11:30:26;3.57;;;2.20;;
5967;SDS011;3010;51.028;4.170;2022-10-16T11:32:49;4.10;;;1.90;;
5967;SDS011;3010;51.028;4.170;2022-10-16T11:35:15;4.13;;;1.90;;
5967;SDS011;3010;51.028;4.170;2022-10-16T11:37:40;3.80;;;1.97;;
5967;SDS011;3010;51.028;4.170;2022-10-16T11:42:41;5.10;;;2.00;;
5967;SDS011;3010;51.028;4.170;2022-10-16T11:45:13;3.20;;;1.70;;
5967;SDS011;3010;51.028;4.170;2022-10-16T11:47:40;1.50;;;1.40;;
5967;SDS011;3010;51.028;4.170;2022-10-16T11:52:55;3.97;;;1.80;;
5967;SDS011;3010;51.028;4.170;2022-10-16T11:55:36;2.33;;;1.90;;
5967;SDS011;3010;51.028;4.170;2022-10-16T11:57:57;1.80;;;1.70;;
5967;SDS011;3010;51.028;4.170;2022-10-16T12:00:23;4.65;;;1.70;;
5967;SDS011;3010;51.028;4.170;2022-10-16T12:05:25;2.47;;;1.60;;
5967;SDS011;3010;51.028;4.170;2022-10-16T12:08:14;3.57;;;1.73;;
5967;SDS011;3010;51.028;4.170;2022-10-16T12:10:42;3.93;;;1.70;;
5967;SDS011;3010;51.028;4.170;2022-10-16T12:14:03;4.20;;;1.60;;
5967;SDS011;3010;51.028;4.170;2022-10-16T12:18:40;3.75;;;1.60;;
5967;SDS011;3010;51.028;4.170;2022-10-16T12:21:06;1.50;;;1.40;;
5967;SDS011;3010;51.028;4.170;2022-10-16T12:23:33;2.93;;;1.50;;
5967;SDS011;3010;51.028;4.170;2022-10-16T12:25:59;3.50;;;1.50;;
5967;SDS011;3010;51.028;4.170;2022-10-16T12:28:26;3.07;;;1.50;;
5967;SDS011;3010;51.028;4.170;2022-10-16T12:30:56;3.83;;;1.90;;
5967;SDS011;3010;51.028;4.170;2022-10-16T12:33:25;2.10;;;1.33;;
5967;SDS011;3010;51.028;4.170;2022-10-16T12:35:51;2.83;;;1.20;;
5967;SDS011;3010;51.028;4.170;2022-10-16T12:38:18;2.67;;;1.40;;
5967;SDS011;3010;51.028;4.170;2022-10-16T12:40:58;1.77;;;1.50;;
5967;SDS011;3010;51.028;4.170;2022-10-16T12:43:39;4.00;;;1.53;;
5967;SDS011;3010;51.028;4.170;2022-10-16T12:48:35;2.73;;;1.47;;
5967;SDS011;3010;51.028;4.170;2022-10-16T12:51:11;4.17;;;1.43;;
5967;SDS011;3010;51.028;4.170;2022-10-16T12:54:10;3.50;;;1.50;;
5967;SDS011;3010;51.028;4.170;2022-10-16T13:05:14;1.70;;;1.30;;
5967;SDS011;3010;51.028;4.170;2022-10-16T13:08:00;5.70;;;1.40;;
5967;SDS011;3010;51.028;4.170;2022-10-16T13:10:47;2.63;;;1.80;;
5967;SDS011;3010;51.028;4.170;2022-10-16T13:15:54;3.13;;;1.50;;
5967;SDS011;3010;51.028;4.170;2022-10-16T13:18:53;2.10;;;1.30;;
5967;SDS011;3010;51.028;4.170;2022-10-16T13:21:32;2.93;;;1.10;;
5967;SDS011;3010;51.028;4.170;2022-10-16T13:24:15;3.63;;;1.30;;
5967;SDS011;3010;51.028;4.170;2022-10-16T13:27:02;3.73;;;1.30;;
5967;SDS011;3010;51.028;4.170;2022-10-16T13:29:29;1.90;;;1.10;;
5967;SDS011;3010;51.028;4.170;2022-10-16T13:31:55;1.00;;;1.00;;
5967;SDS011;3010;51.028;4.170;2022-10-16T13:34:21;2.50;;;1.07;;
5967;SDS011;3010;51.028;4.170;2022-10-16T13:36:50;1.30;;;1.13;;
5967;SDS011;3010;51.028;4.170;2022-10-16T13:39:21;2.53;;;1.30;;
5967;SDS011;3010;51.028;4.170;2022-10-16T13:41:58;3.23;;;0.90;;
5967;SDS011;3010;51.028;4.170;2022-10-16T13:44:30;4.07;;;1.42;;
5967;SDS011;3010;51.028;4.170;2022-10-16T13:47:00;2.93;;;1.20;;
5967;SDS011;3010;51.028;4.170;2022-10-16T13:49:26;1.87;;;1.40;;
5967;SDS011;3010;51.028;4.170;2022-10-16T13:51:56;2.63;;;1.00;;
5967;SDS011;3010;51.028;4.170;2022-10-16T13:54:22;0.90;;;0.90;;
5967;SDS011;3010;51.028;4.170;2022-10-16T13:56:49;2.20;;;1.13;;
5967;SDS011;3010;51.028;4.170;2022-10-16T13:59:25;1.43;;;1.20;;
5967;SDS011;3010;51.028;4.170;2022-10-16T14:01:52;2.70;;;1.50;;
5967;SDS011;3010;51.028;4.170;2022-10-16T14:04:17;2.13;;;1.30;;
5967;SDS011;3010;51.028;4.170;2022-10-16T14:06:46;4.80;;;1.67;;
5967;SDS011;3010;51.028;4.170;2022-10-16T14:09:20;1.40;;;1.30;;
5967;SDS011;3010;51.028;4.170;2022-10-16T14:11:53;3.37;;;1.53;;
5967;SDS011;3010;51.028;4.170;2022-10-16T14:14:16;1.10;;;1.10;;
5967;SDS011;3010;51.028;4.170;2022-10-16T14:16:43;1.30;;;1.20;;
5967;SDS011;3010;51.028;4.170;2022-10-16T14:19:15;1.50;;;1.27;;
5967;SDS011;3010;51.028;4.170;2022-10-16T14:21:40;2.30;;;1.43;;
5967;SDS011;3010;51.028;4.170;2022-10-16T14:24:12;1.30;;;1.20;;
5967;SDS011;3010;51.028;4.170;2022-10-16T14:26:42;3.03;;;1.53;;
5967;SDS011;3010;51.028;4.170;2022-10-16T14:29:12;1.37;;;1.30;;
5967;SDS011;3010;51.028;4.170;2022-10-16T14:31:55;1.23;;;1.13;;
5967;SDS011;3010;51.028;4.170;2022-10-16T14:34:22;2.30;;;1.23;;
5967;SDS011;3010;51.028;4.170;2022-10-16T14:36:48;3.40;;;1.67;;
5967;SDS011;3010;51.028;4.170;2022-10-16T14:39:19;2.17;;;1.20;;
5967;SDS011;3010;51.028;4.170;2022-10-16T14:41:45;2.83;;;1.40;;
5967;SDS011;3010;51.028;4.170;2022-10-16T14:44:11;1.80;;;1.20;;
5967;SDS011;3010;51.028;4.170;2022-10-16T14:46:38;1.67;;;1.40;;
5967;SDS011;3010;51.028;4.170;2022-10-16T14:51:37;2.83;;;1.42;;
5967;SDS011;3010;51.028;4.170;2022-10-16T14:54:03;3.40;;;1.27;;
5967;SDS011;3010;51.028;4.170;2022-10-16T14:57:04;1.62;;;1.20;;
5967;SDS011;3010;51.028;4.170;2022-10-16T14:59:13;1.20;;;1.20;;
5967;SDS011;3010;51.028;4.170;2022-10-16T15:01:38;1.33;;;1.23;;
5967;SDS011;3010;51.028;4.170;2022-10-16T15:04:04;3.77;;;1.60;;
5967;SDS011;3010;51.028;4.170;2022-10-16T15:06:31;1.37;;;1.33;;
5967;SDS011;3010;51.028;4.170;2022-10-16T15:08:57;1.40;;;1.30;;
5967;SDS011;3010;51.028;4.170;2022-10-16T15:11:24;1.30;;;1.30;;
5967;SDS011;3010;51.028;4.170;2022-10-16T15:13:51;3.00;;;1.30;;
5967;SDS011;3010;51.028;4.170;2022-10-16T15:16:17;2.70;;;1.77;;
5967;SDS011;3010;51.028;4.170;2022-10-16T15:18:44;2.77;;;1.60;;
5967;SDS011;3010;51.028;4.170;2022-10-16T15:21:27;1.83;;;1.23;;
5967;SDS011;3010;51.028;4.170;2022-10-16T15:23:52;1.77;;;1.67;;
5967;SDS011;3010;51.028;4.170;2022-10-16T15:26:18;2.13;;;1.60;;
5967;SDS011;3010;51.028;4.170;2022-10-16T15:28:45;1.60;;;1.50;;
5967;SDS011;3010;51.028;4.170;2022-10-16T15:31:12;2.47;;;1.67;;
5967;SDS011;3010;51.028;4.170;2022-10-16T15:33:38;1.83;;;1.53;;
5967;SDS011;3010;51.028;4.170;2022-10-16T15:36:05;3.23;;;1.83;;
5967;SDS011;3010;51.028;4.170;2022-10-16T15:38:31;1.73;;;1.63;;
5967;SDS011;3010;51.028;4.170;2022-10-16T15:40:58;2.80;;;1.70;;
5967;SDS011;3010;51.028;4.170;2022-10-16T15:43:25;3.10;;;2.08;;
5967;SDS011;3010;51.028;4.170;2022-10-16T15:46:02;3.70;;;2.30;;
5967;SDS011;3010;51.028;4.170;2022-10-16T15:48:27;2.90;;;2.10;;
5967;SDS011;3010;51.028;4.170;2022-10-16T15:50:53;2.50;;;1.80;;
5967;SDS011;3010;51.028;4.170;2022-10-16T15:53:20;2.73;;;2.00;;
5967;SDS011;3010;51.028;4.170;2022-10-16T15:55:47;5.03;;;2.10;;
5967;SDS011;3010;51.028;4.170;2022-10-16T15:58:13;4.97;;;2.93;;
5967;SDS011;3010;51.028;4.170;2022-10-16T16:00:40;2.50;;;2.30;;
5967;SDS011;3010;51.028;4.170;2022-10-16T16:03:06;2.33;;;2.17;;
5967;SDS011;3010;51.028;4.170;2022-10-16T16:05:33;3.73;;;2.10;;
5967;SDS011;3010;51.028;4.170;2022-10-16T16:08:00;2.27;;;2.07;;
5967;SDS011;3010;51.028;4.170;2022-10-16T16:10:26;3.20;;;2.10;;
5967;SDS011;3010;51.028;4.170;2022-10-16T16:12:53;3.47;;;3.20;;
5967;SDS011;3010;51.028;4.170;2022-10-16T16:15:20;3.47;;;2.40;;
5967;SDS011;3010;51.028;4.170;2022-10-16T16:17:46;3.90;;;2.20;;
5967;SDS011;3010;51.028;4.170;2022-10-16T16:20:13;2.20;;;1.83;;
5967;SDS011;3010;51.028;4.170;2022-10-16T16:22:39;1.90;;;1.80;;
5967;SDS011;3010;51.028;4.170;2022-10-16T16:25:06;2.80;;;2.43;;
5967;SDS011;3010;51.028;4.170;2022-10-16T16:27:32;6.27;;;2.30;;
5967;SDS011;3010;51.028;4.170;2022-10-16T16:30:00;3.63;;;2.30;;
5967;SDS011;3010;51.028;4.170;2022-10-16T16:32:25;3.57;;;2.33;;
5967;SDS011;3010;51.028;4.170;2022-10-16T16:34:52;4.23;;;2.43;;